createdAt,value
2022-11-30T00:01:21.537Z,72.38
2022-11-30T00:03:49.607Z,78.20
2022-11-30T00:06:23.252Z,71.75
2022-11-30T00:08:55.575Z,72.80
2022-11-30T00:11:24.985Z,71.03
2022-11-30T00:13:52.127Z,70.82
2022-11-30T00:16:19.601Z,71.72
2022-11-30T00:18:47.143Z,69.70
2022-11-30T00:21:15.154Z,72.65
2022-11-30T00:23:44.655Z,71.03
2022-11-30T00:26:14.642Z,73.05
2022-11-30T00:28:44.043Z,72.63
2022-11-30T00:31:14.299Z,71.88
2022-11-30T00:33:42.113Z,72.40
2022-11-30T00:36:13.747Z,69.32
2022-11-30T00:38:41.022Z,77.63
2022-11-30T00:41:08.199Z,79.75
2022-11-30T00:43:36.074Z,76.82
2022-11-30T00:46:03.582Z,80.35
2022-11-30T00:48:31.066Z,79.50
2022-11-30T00:50:58.641Z,89.00
2022-11-30T00:53:25.925Z,89.30
2022-11-30T00:55:53.546Z,90.80
2022-11-30T00:58:20.789Z,87.43
2022-11-30T01:00:48.155Z,80.20
2022-11-30T01:03:15.573Z,89.57
2022-11-30T01:05:46.326Z,94.15
2022-11-30T01:08:14.116Z,87.68
2022-11-30T01:10:43.311Z,87.97
2022-11-30T01:13:13.082Z,92.45
2022-11-30T01:15:43.875Z,87.13
2022-11-30T01:18:11.942Z,88.68
2022-11-30T01:20:43.644Z,90.60
2022-11-30T01:23:11.417Z,83.57
2022-11-30T01:25:38.744Z,79.93
2022-11-30T01:28:06.344Z,77.70
2022-11-30T01:30:33.690Z,82.70
2022-11-30T01:33:05.063Z,78.00
2022-11-30T01:35:32.288Z,72.28
2022-11-30T01:37:59.524Z,74.20
2022-11-30T01:40:27.200Z,72.30
2022-11-30T01:42:54.485Z,81.25
2022-11-30T01:45:21.884Z,82.78
2022-11-30T01:47:54.121Z,78.82
2022-11-30T01:50:32.540Z,80.07
2022-11-30T01:53:00.141Z,76.40
2022-11-30T01:55:32.888Z,73.05
2022-11-30T01:58:11.667Z,73.18
2022-11-30T02:00:43.017Z,74.20
2022-11-30T02:03:56.443Z,78.82
2022-11-30T02:06:25.043Z,71.10
2022-11-30T02:08:53.697Z,77.00
2022-11-30T02:11:21.539Z,79.10
2022-11-30T02:14:12.492Z,82.28
2022-11-30T02:16:54.076Z,87.30
2022-11-30T02:19:55.653Z,85.80
2022-11-30T02:23:00.031Z,77.97
2022-11-30T02:25:58.269Z,84.45
2022-11-30T02:28:50.964Z,81.35
2022-11-30T02:31:24.355Z,88.95
2022-11-30T02:33:53.116Z,87.00
2022-11-30T02:36:21.381Z,85.03
2022-11-30T02:38:49.202Z,79.80
2022-11-30T02:41:16.466Z,84.68
2022-11-30T02:43:44.445Z,85.53
2022-11-30T02:46:28.037Z,88.75
2022-11-30T02:49:07.511Z,90.63
2022-11-30T02:51:37.800Z,79.95
2022-11-30T02:54:05.156Z,87.47
2022-11-30T02:56:33.480Z,92.60
2022-11-30T02:59:00.839Z,87.00
2022-11-30T03:01:28.198Z,87.22
2022-11-30T03:03:55.375Z,78.88
2022-11-30T03:06:22.666Z,87.30
2022-11-30T03:08:49.845Z,80.10
2022-11-30T03:11:17.052Z,80.75
2022-11-30T03:13:44.255Z,92.15
2022-11-30T03:16:13.257Z,87.88
2022-11-30T03:18:41.356Z,92.68
2022-11-30T03:21:10.663Z,85.07
2022-11-30T03:23:39.280Z,88.00
2022-11-30T03:26:08.424Z,86.13
2022-11-30T03:28:37.315Z,89.90
2022-11-30T03:31:05.085Z,91.22
2022-11-30T03:33:32.400Z,92.03
2022-11-30T03:36:05.428Z,84.28
2022-11-30T03:38:32.574Z,91.78
2022-11-30T03:41:05.784Z,95.13
2022-11-30T03:43:33.304Z,92.60
2022-11-30T03:46:01.246Z,87.95
2022-11-30T03:48:28.621Z,92.13
2022-11-30T03:50:55.899Z,96.00
2022-11-30T03:53:24.722Z,92.80
2022-11-30T03:55:54.352Z,86.82
2022-11-30T03:58:22.209Z,83.47
2022-11-30T04:00:50.059Z,86.15
2022-11-30T04:03:17.288Z,90.53
2022-11-30T04:05:44.768Z,79.25
2022-11-30T04:08:11.853Z,82.50
2022-11-30T04:10:39.205Z,84.63
2022-11-30T04:13:06.313Z,84.95
2022-11-30T04:15:33.505Z,86.50
2022-11-30T04:18:00.819Z,89.47
2022-11-30T04:20:27.976Z,86.10
2022-11-30T04:22:57.895Z,91.88
2022-11-30T04:25:25.783Z,80.38
2022-11-30T04:27:52.910Z,95.00
2022-11-30T04:30:20.214Z,100.82
2022-11-30T04:32:47.472Z,98.43
2022-11-30T04:35:14.969Z,97.95
2022-11-30T04:37:42.291Z,96.40
2022-11-30T04:40:09.953Z,90.82
2022-11-30T04:42:37.193Z,93.43
2022-11-30T04:45:04.669Z,101.95
2022-11-30T04:47:32.029Z,83.85
2022-11-30T04:49:59.239Z,89.28
2022-11-30T04:52:26.490Z,91.65
2022-11-30T04:54:53.915Z,79.75
2022-11-30T04:57:21.158Z,80.00
2022-11-30T04:59:48.333Z,81.00
2022-11-30T05:02:15.431Z,87.55
2022-11-30T05:04:42.653Z,89.07
2022-11-30T05:07:10.089Z,81.85
2022-11-30T05:09:37.283Z,84.82
2022-11-30T05:12:04.565Z,78.10
2022-11-30T05:14:31.781Z,77.57
2022-11-30T05:16:59.051Z,76.93
2022-11-30T05:19:26.172Z,74.55
2022-11-30T05:21:53.482Z,77.18
2022-11-30T05:24:20.632Z,76.55
2022-11-30T05:26:47.862Z,77.90
2022-11-30T05:29:15.084Z,71.80
2022-11-30T05:31:42.434Z,75.95
2022-11-30T05:34:09.805Z,79.38
2022-11-30T05:36:37.164Z,79.78
2022-11-30T05:39:04.717Z,78.40
2022-11-30T05:41:31.778Z,77.20
2022-11-30T05:43:59.062Z,76.43
2022-11-30T05:46:26.543Z,68.18
2022-11-30T05:48:53.918Z,69.32
2022-11-30T05:51:21.642Z,74.15
2022-11-30T05:53:49.242Z,67.70
2022-11-30T05:56:19.697Z,69.30
2022-11-30T05:58:47.765Z,73.70
2022-11-30T06:01:23.509Z,69.80
2022-11-30T06:03:51.461Z,69.53
2022-11-30T06:06:19.300Z,72.93
2022-11-30T06:08:48.017Z,67.75
2022-11-30T06:11:16.112Z,73.32
2022-11-30T06:13:43.669Z,70.18
2022-11-30T06:16:10.901Z,68.07
2022-11-30T06:18:38.664Z,70.20
2022-11-30T06:21:08.550Z,69.85
2022-11-30T06:23:36.149Z,68.93
2022-11-30T06:26:07.748Z,68.82
2022-11-30T06:28:36.012Z,69.40
2022-11-30T06:31:05.922Z,70.40
2022-11-30T06:33:34.454Z,72.90
2022-11-30T06:36:02.172Z,75.00
2022-11-30T06:38:29.719Z,76.88
2022-11-30T06:41:05.080Z,80.70
2022-11-30T06:43:39.927Z,71.75
2022-11-30T06:46:07.623Z,71.35
2022-11-30T06:48:36.200Z,69.43
2022-11-30T06:51:07.875Z,63.55
2022-11-30T06:53:35.717Z,62.25
2022-11-30T06:56:10.687Z,63.75
2022-11-30T06:58:40.090Z,73.72
2022-11-30T07:01:09.672Z,64.82
2022-11-30T07:03:37.440Z,68.32
2022-11-30T07:06:14.827Z,68.32
2022-11-30T07:08:43.260Z,65.47
2022-11-30T07:11:11.740Z,65.38
2022-11-30T07:13:39.223Z,68.80
2022-11-30T07:16:08.312Z,69.85
2022-11-30T07:18:35.720Z,71.18
2022-11-30T07:21:05.080Z,64.25
2022-11-30T07:23:55.849Z,68.43
2022-11-30T07:26:24.445Z,62.65
2022-11-30T07:28:58.798Z,62.75
2022-11-30T07:31:29.188Z,63.03
2022-11-30T07:33:57.929Z,66.15
2022-11-30T07:36:27.100Z,64.57
2022-11-30T07:38:54.301Z,59.78
2022-11-30T07:41:22.291Z,64.20
2022-11-30T07:43:49.515Z,62.03
2022-11-30T07:46:17.933Z,60.45
2022-11-30T07:48:45.999Z,57.35
2022-11-30T07:51:19.875Z,60.33
2022-11-30T07:53:47.974Z,62.78
2022-11-30T07:56:18.235Z,63.40
2022-11-30T07:58:47.107Z,61.70
2022-11-30T08:01:17.748Z,64.80
2022-11-30T08:03:45.272Z,63.97
2022-11-30T08:06:16.361Z,60.47
2022-11-30T08:08:45.174Z,67.00
2022-11-30T08:11:15.119Z,62.78
2022-11-30T08:13:42.879Z,63.65
2022-11-30T08:16:13.004Z,67.55
2022-11-30T08:18:40.920Z,64.82
2022-11-30T08:21:10.353Z,70.47
2022-11-30T08:23:40.242Z,70.95
2022-11-30T08:26:11.953Z,66.78
2022-11-30T08:28:39.993Z,68.45
2022-11-30T08:31:13.860Z,64.63
2022-11-30T08:33:41.172Z,71.03
2022-11-30T08:36:13.057Z,66.35
2022-11-30T08:38:41.778Z,65.63
2022-11-30T08:41:10.887Z,65.97
2022-11-30T08:43:38.485Z,71.75
2022-11-30T08:49:12.974Z,64.55
2022-11-30T08:54:30.763Z,64.57
2022-11-30T08:56:59.391Z,61.15
2022-11-30T08:59:27.102Z,73.95
2022-11-30T09:01:54.363Z,71.00
2022-11-30T09:04:21.775Z,69.53
2022-11-30T09:06:49.104Z,65.22
2022-11-30T09:09:16.391Z,62.85
2022-11-30T09:11:43.681Z,63.65
2022-11-30T09:14:11.155Z,68.30
2022-11-30T09:16:38.550Z,62.13
2022-11-30T09:19:06.017Z,68.35
2022-11-30T09:21:33.511Z,67.70
2022-11-30T09:24:00.860Z,65.30
2022-11-30T09:26:28.540Z,64.38
2022-11-30T09:28:56.167Z,63.47
2022-11-30T09:31:26.007Z,68.70
2022-11-30T09:33:56.407Z,62.03
2022-11-30T09:36:27.628Z,66.10
2022-11-30T09:38:57.427Z,65.93
2022-11-30T09:41:49.818Z,66.65
2022-11-30T09:44:43.238Z,63.53
2022-11-30T09:47:32.269Z,69.13
2022-11-30T09:50:30.307Z,65.33
2022-11-30T09:53:16.229Z,66.25
2022-11-30T09:55:45.356Z,71.57
2022-11-30T09:58:28.138Z,73.85
2022-11-30T10:00:55.859Z,68.30
2022-11-30T10:03:24.286Z,65.90
2022-11-30T10:06:11.224Z,74.03
2022-11-30T10:08:51.046Z,66.70
2022-11-30T10:11:46.846Z,70.25
2022-11-30T10:14:32.724Z,70.68
2022-11-30T10:17:20.174Z,73.57
2022-11-30T10:20:25.550Z,74.57
2022-11-30T10:23:09.782Z,71.57
2022-11-30T10:25:57.457Z,70.38
2022-11-30T10:28:51.841Z,77.53
2022-11-30T10:31:32.308Z,69.57
2022-11-30T10:34:13.903Z,65.25
2022-11-30T10:36:44.954Z,70.25
2022-11-30T10:39:22.859Z,71.82
2022-11-30T10:42:16.409Z,74.05
2022-11-30T10:44:59.617Z,72.82
2022-11-30T10:47:37.060Z,65.43
2022-11-30T10:50:06.470Z,71.88
2022-11-30T10:52:46.547Z,74.47
2022-11-30T10:57:54.405Z,69.50
2022-11-30T11:00:22.134Z,76.35
2022-11-30T11:02:50.554Z,79.07
2022-11-30T11:05:20.169Z,74.90
2022-11-30T11:07:50.280Z,74.70
2022-11-30T11:10:31.475Z,74.70
2022-11-30T11:12:59.339Z,73.85
2022-11-30T11:15:29.049Z,74.75
2022-11-30T11:18:23.142Z,69.53
2022-11-30T11:21:06.295Z,70.22
2022-11-30T11:23:40.054Z,63.30
2022-11-30T11:26:17.398Z,72.78
2022-11-30T11:28:47.296Z,71.32
2022-11-30T11:31:33.998Z,76.95
2022-11-30T11:34:01.767Z,76.53
2022-11-30T11:36:34.373Z,69.20
2022-11-30T11:39:01.771Z,73.43
2022-11-30T11:41:39.168Z,66.65
2022-11-30T11:44:09.405Z,71.53
2022-11-30T11:46:52.460Z,66.97
2022-11-30T11:49:23.994Z,66.20
2022-11-30T11:52:03.400Z,66.68
2022-11-30T11:54:42.635Z,65.13
2022-11-30T11:57:13.561Z,64.20
2022-11-30T12:00:02.547Z,59.25
2022-11-30T12:03:05.108Z,59.97
2022-11-30T12:05:50.443Z,55.85
2022-11-30T12:08:29.232Z,57.55
2022-11-30T12:11:12.611Z,58.85
2022-11-30T12:13:42.476Z,59.60
2022-11-30T12:16:12.505Z,59.53
2022-11-30T12:18:59.518Z,56.78
2022-11-30T12:21:38.181Z,58.72
2022-11-30T12:24:23.336Z,59.42
2022-11-30T12:27:27.859Z,59.95
2022-11-30T12:30:39.013Z,71.72
2022-11-30T12:33:33.377Z,66.43
2022-11-30T12:36:14.748Z,69.90
2022-11-30T12:38:59.171Z,62.08
2022-11-30T12:41:48.992Z,70.50
2022-11-30T12:44:41.930Z,68.78
2022-11-30T12:47:18.015Z,59.40
2022-11-30T12:50:02.231Z,62.53
2022-11-30T12:52:32.115Z,72.90
2022-11-30T12:55:24.134Z,64.05
2022-11-30T12:58:06.063Z,59.35
2022-11-30T13:01:06.943Z,57.08
2022-11-30T13:03:50.682Z,58.88
2022-11-30T13:06:23.649Z,57.35
2022-11-30T13:09:13.648Z,55.85
2022-11-30T13:11:43.711Z,60.53
2022-11-30T13:14:20.694Z,60.70
2022-11-30T13:16:51.142Z,59.95
2022-11-30T13:19:26.435Z,61.60
2022-11-30T13:22:03.048Z,60.30
2022-11-30T13:24:37.923Z,58.50
2022-11-30T13:27:23.055Z,60.17
2022-11-30T13:29:59.825Z,65.43
2022-11-30T13:32:56.753Z,62.25
2022-11-30T13:35:29.331Z,65.80
2022-11-30T13:38:36.434Z,62.08
2022-11-30T13:41:07.896Z,57.80
2022-11-30T13:43:40.738Z,56.97
2022-11-30T13:46:22.539Z,57.15
2022-11-30T13:48:50.587Z,64.20
2022-11-30T13:51:39.450Z,63.25
2022-11-30T13:54:41.587Z,64.38
2022-11-30T13:57:19.906Z,60.63
2022-11-30T13:59:55.641Z,61.38
2022-11-30T14:02:36.868Z,58.90
2022-11-30T14:05:19.647Z,61.65
2022-11-30T14:07:53.595Z,61.08
2022-11-30T14:10:32.674Z,57.92
2022-11-30T14:13:03.039Z,51.67
2022-11-30T14:15:50.598Z,53.65
2022-11-30T14:18:22.326Z,57.70
2022-11-30T14:21:01.266Z,59.90
2022-11-30T14:23:31.938Z,57.85
2022-11-30T14:26:10.838Z,58.63
2022-11-30T14:28:50.751Z,63.37
2022-11-30T14:31:24.659Z,68.72
2022-11-30T14:33:56.627Z,64.95
2022-11-30T14:36:28.946Z,65.15
2022-11-30T14:38:56.846Z,63.55
2022-11-30T14:41:30.107Z,62.67
2022-11-30T14:44:13.356Z,62.00
2022-11-30T14:46:41.519Z,56.45
2022-11-30T14:49:25.136Z,61.80
2022-11-30T14:51:58.277Z,62.35
2022-11-30T14:54:43.920Z,65.53
2022-11-30T14:57:42.432Z,65.90
2022-11-30T15:00:18.526Z,67.13
2022-11-30T15:02:46.430Z,63.65
2022-11-30T15:05:17.747Z,57.08
2022-11-30T15:07:46.318Z,68.88
2022-11-30T15:10:29.385Z,66.95
2022-11-30T15:13:00.827Z,71.68
2022-11-30T15:15:31.572Z,70.50
2022-11-30T15:18:14.506Z,65.47
2022-11-30T15:20:44.648Z,67.97
2022-11-30T15:25:49.159Z,66.70
2022-11-30T15:28:34.248Z,67.75
2022-11-30T15:31:07.767Z,68.55
2022-11-30T15:33:42.800Z,64.63
2022-11-30T15:36:32.566Z,70.68
2022-11-30T15:38:58.555Z,68.68
2022-11-30T15:41:26.716Z,67.15
2022-11-30T15:43:57.187Z,66.10
2022-11-30T15:46:33.660Z,63.20
2022-11-30T15:49:17.621Z,63.47
2022-11-30T15:51:59.048Z,62.70
2022-11-30T15:54:46.336Z,66.38
2022-11-30T15:57:15.346Z,66.38
2022-11-30T15:59:44.328Z,64.72
2022-11-30T16:02:32.883Z,71.43
2022-11-30T16:05:23.769Z,69.53
2022-11-30T16:08:03.948Z,70.68
2022-11-30T16:10:40.378Z,73.88
2022-11-30T16:13:07.821Z,75.55
2022-11-30T16:15:36.756Z,76.55
2022-11-30T16:18:20.616Z,74.35
2022-11-30T16:20:59.581Z,78.00
2022-11-30T16:23:28.428Z,77.38
2022-11-30T16:25:56.054Z,78.28
2022-11-30T16:28:23.670Z,80.00
2022-11-30T16:30:51.931Z,83.63
2022-11-30T16:33:22.243Z,86.55
2022-11-30T16:35:57.022Z,88.45
2022-11-30T16:38:25.493Z,94.20
2022-11-30T16:40:56.511Z,91.45
2022-11-30T16:43:25.988Z,91.38
2022-11-30T16:45:53.411Z,87.85
2022-11-30T16:48:20.762Z,92.25
2022-11-30T16:50:48.021Z,94.03
2022-11-30T16:53:15.839Z,93.18
2022-11-30T16:55:43.511Z,92.03
2022-11-30T16:58:10.889Z,89.43
2022-11-30T17:00:40.383Z,86.55
2022-11-30T17:03:32.263Z,92.20
2022-11-30T17:05:59.393Z,98.95
2022-11-30T17:08:26.698Z,97.93
2022-11-30T17:10:55.187Z,91.70
2022-11-30T17:13:22.586Z,96.63
2022-11-30T17:15:50.165Z,98.50
2022-11-30T17:18:17.446Z,93.80
2022-11-30T17:20:44.821Z,92.05
2022-11-30T17:23:12.174Z,91.13
2022-11-30T17:25:39.700Z,91.65
2022-11-30T17:28:06.894Z,89.30
2022-11-30T17:30:34.209Z,85.22
2022-11-30T17:33:01.511Z,88.40
2022-11-30T17:35:28.710Z,83.43
2022-11-30T17:37:56.044Z,78.80
2022-11-30T17:40:23.470Z,79.65
2022-11-30T17:42:50.696Z,85.57
2022-11-30T17:45:18.003Z,81.57
2022-11-30T17:47:45.340Z,81.68
2022-11-30T17:50:14.128Z,78.28
2022-11-30T17:52:41.380Z,74.80
2022-11-30T17:55:09.079Z,76.97
2022-11-30T17:57:37.978Z,81.55
2022-11-30T18:00:06.581Z,81.95
2022-11-30T18:02:33.996Z,75.82
2022-11-30T18:05:01.298Z,77.32
2022-11-30T18:07:28.628Z,69.53
2022-11-30T18:09:56.607Z,77.05
2022-11-30T18:12:23.772Z,79.95
2022-11-30T18:14:51.247Z,77.32
2022-11-30T18:17:18.487Z,72.00
2022-11-30T18:19:45.784Z,74.85
2022-11-30T18:22:13.010Z,70.05
2022-11-30T18:24:40.555Z,72.28
2022-11-30T18:27:07.860Z,69.25
2022-11-30T18:29:35.183Z,67.43
2022-11-30T18:32:02.412Z,70.20
2022-11-30T18:34:29.768Z,69.88
2022-11-30T18:36:57.032Z,62.90
2022-11-30T18:39:24.238Z,66.60
2022-11-30T18:41:51.444Z,61.50
2022-11-30T18:44:18.825Z,61.67
2022-11-30T18:46:46.042Z,57.78
2022-11-30T18:49:13.314Z,60.00
2022-11-30T18:51:40.704Z,57.33
2022-11-30T18:54:10.278Z,57.30
2022-11-30T18:56:38.966Z,59.75
2022-11-30T18:59:09.374Z,58.53
2022-11-30T19:01:37.088Z,60.35
2022-11-30T19:04:08.137Z,61.28
2022-11-30T19:06:37.058Z,58.38
2022-11-30T19:09:08.943Z,59.55
2022-11-30T19:11:37.768Z,58.10
2022-11-30T19:14:05.865Z,55.35
2022-11-30T19:16:35.045Z,57.72
2022-11-30T19:19:05.200Z,58.83
2022-11-30T19:21:33.356Z,61.72
2022-11-30T19:24:00.916Z,61.15
2022-11-30T19:26:28.778Z,63.25
2022-11-30T19:28:57.570Z,58.80
2022-11-30T19:31:26.263Z,61.65
2022-11-30T19:33:55.616Z,62.40
2022-11-30T19:36:26.172Z,61.93
2022-11-30T19:38:54.228Z,61.50
2022-11-30T19:41:22.209Z,57.63
2022-11-30T19:44:02.764Z,59.13
2022-11-30T19:46:32.235Z,58.65
2022-11-30T19:49:01.804Z,57.20
2022-11-30T19:51:30.713Z,55.70
2022-11-30T19:54:01.642Z,56.28
2022-11-30T19:56:34.769Z,55.38
2022-11-30T19:59:05.718Z,54.15
2022-11-30T20:01:34.637Z,53.42
2022-11-30T20:04:03.097Z,55.95
2022-11-30T20:06:36.087Z,56.10
2022-11-30T20:09:05.827Z,51.42
2022-11-30T20:11:33.465Z,52.50
2022-11-30T20:14:01.883Z,55.25
2022-11-30T20:16:29.621Z,51.38
2022-11-30T20:19:01.160Z,54.47
2022-11-30T20:21:31.484Z,52.90
2022-11-30T20:24:01.001Z,55.15
2022-11-30T20:26:34.480Z,52.63
2022-11-30T20:29:03.752Z,53.72
2022-11-30T20:31:33.593Z,56.53
2022-11-30T20:34:01.370Z,58.42
2022-11-30T20:36:28.852Z,57.00
2022-11-30T20:38:56.519Z,56.47
2022-11-30T20:41:25.667Z,52.40
2022-11-30T20:43:53.717Z,56.80
2022-11-30T20:46:36.028Z,51.05
2022-11-30T20:49:12.943Z,55.83
2022-11-30T20:51:41.447Z,51.70
2022-11-30T20:54:09.454Z,59.22
2022-11-30T20:56:38.435Z,52.28
2022-11-30T20:59:17.822Z,57.72
2022-11-30T21:01:47.781Z,58.47
2022-11-30T21:04:15.660Z,56.08
2022-11-30T21:06:45.914Z,57.22
2022-11-30T21:09:17.908Z,56.40
2022-11-30T21:11:45.882Z,59.30
2022-11-30T21:14:13.753Z,59.13
2022-11-30T21:16:41.525Z,56.80
2022-11-30T21:19:10.976Z,59.85
2022-11-30T21:21:38.209Z,61.90
2022-11-30T21:24:08.094Z,57.72
2022-11-30T21:26:38.161Z,55.85
2022-11-30T21:29:10.052Z,62.22
2022-11-30T21:31:37.454Z,60.55
2022-11-30T21:34:05.107Z,58.17
2022-11-30T21:36:32.615Z,61.10
2022-11-30T21:39:06.745Z,56.80
2022-11-30T21:41:38.613Z,62.83
2022-11-30T21:44:07.763Z,61.92
2022-11-30T21:46:35.255Z,68.17
2022-11-30T21:49:03.120Z,66.45
2022-11-30T21:51:32.065Z,66.30
2022-11-30T21:54:01.778Z,67.15
2022-11-30T21:56:34.071Z,69.45
2022-11-30T21:59:01.859Z,69.70
2022-11-30T22:01:32.021Z,72.30
2022-11-30T22:04:00.995Z,73.43
2022-11-30T22:06:30.451Z,69.43
2022-11-30T22:09:03.341Z,69.50
2022-11-30T22:11:31.443Z,71.72
2022-11-30T22:13:58.991Z,70.55
2022-11-30T22:16:33.978Z,78.55
2022-11-30T22:19:03.455Z,74.95
2022-11-30T22:21:31.994Z,72.25
2022-11-30T22:24:02.170Z,68.95
2022-11-30T22:29:04.705Z,79.05
2022-11-30T22:31:36.147Z,81.63
2022-11-30T22:34:04.112Z,75.47
2022-11-30T22:36:33.334Z,82.32
2022-11-30T22:39:04.117Z,78.80
2022-11-30T22:41:31.908Z,79.47
2022-11-30T22:43:59.835Z,77.55
2022-11-30T22:46:32.788Z,78.00
2022-11-30T22:49:02.784Z,72.20
2022-11-30T22:51:32.380Z,71.28
2022-11-30T22:54:00.460Z,67.65
2022-11-30T22:56:41.650Z,71.72
2022-11-30T22:59:11.914Z,65.75
2022-11-30T23:04:12.091Z,56.92
2022-11-30T23:06:41.487Z,57.45
2022-11-30T23:09:14.375Z,57.80
2022-11-30T23:11:42.449Z,54.33
2022-11-30T23:14:12.737Z,51.55
2022-11-30T23:16:41.251Z,48.47
2022-11-30T23:19:09.375Z,48.08
2022-11-30T23:21:41.745Z,48.90
2022-11-30T23:24:17.213Z,49.22
2022-11-30T23:26:44.459Z,46.78
2022-11-30T23:29:13.959Z,47.65
2022-11-30T23:31:44.144Z,47.63
2022-11-30T23:34:15.133Z,49.42
2022-11-30T23:36:42.793Z,44.40
2022-11-30T23:39:13.299Z,43.58
2022-11-30T23:41:41.296Z,44.22
2022-11-30T23:44:09.281Z,48.60
2022-11-30T23:46:36.489Z,46.22
2022-11-30T23:49:04.377Z,45.28
2022-11-30T23:51:31.504Z,50.15
2022-11-30T23:53:58.642Z,49.40
2022-11-30T23:56:25.902Z,48.20
2022-11-30T23:58:53.364Z,47.50
